SEASEATTLE-TACOMA INTL
METARs for airports near SEA, sorted by distance:
N 0 nm 432' KSEA 292253Z 36009KT 10SM FEW150 BKN180 BKN250 26/09 A2989
NE 4 nm 32' KRNT 292253Z 33010KT 6SM CLR 25/09 A2987
N 4 nm 21' KBFI 292253Z 31008KT 10SM CLR 24/08 A2988
SW 15 nm 294' KTIW 292253Z 01008KT 10SM SCT100 23/11 A2989
W 18 nm 444' KPWT 292256Z 06007KT 10SM CLR 23/13 A2990
S 19 nm 322' KTCM 292258Z 05006KT 10SM SCT100 BKN170 25/08 A2989
S 20 nm 537' KPLU 292315Z VRB03KT 10SM CLR 25/10 A2989
SW 24 nm 301' KGRF 292258Z 27004KT 10SM SCT180 26/14 A2988
N 27 nm 607' KPAE 292253Z 35010G18KT 10SM FEW110 16/09 A2992
W 36 nm 272' KSHN 292253Z 26007KT 10SM CLR 26/11 A2985
SW 37 nm 207' KOLM 292254Z 01003KT 10SM CLR 27/11 A2988
N 43 nm 141' KAWO 292256Z 30010G17KT 10SM CLR 20/12 A2991
SW 53 nm 177' KCLS 292315Z 00000KT 10SM CLR 27/14 A2988
N 55 nm 47' KNUW 292256Z 24009KT 10SM SCT100 BKN150 BKN240 16/09 A2996
NW 60 nm 13' KNOW 292250Z 29019G24KT 10SM CLR A2993
N 61 nm 145' KBVS 292310Z 20006KT 10SM CLR 23/11 A2990
NW 62 nm 291' KCLM 292253Z 30011G18KT 10SM CLR 16/09 A2995
NW 70 nm 112' KFHR 292253Z 13004KT 10SM CLR 19/12 A2991
SW 72 nm 17' KHQM 292253Z 30010G19KT 10SM CLR 17/07 A2994
E 76 nm 1763' KELN 292253Z 08012KT 10SM CLR 33/05 A2985
N 79 nm 34' KORS 281715Z 33007KT 10SM 17/13 A3007
N 81 nm 171' KBLI 292253Z 17006KT 10SM CLR 21/11 A2990
S 83 nm 20' KKLS 292256Z 28010G14KT 10SM CLR 24/14 A2987
NW 84 nm 64' CYYJ 292300Z 09006KT 30SM FEW130 SCT170 BKN230 21/11 A2989
E 85 nm 1248' KEAT 292255Z 12009G14KT 10SM CLR 32/06 A2981
SE 89 nm 1098' KYKM 292253Z VRB03KT 10SM CLR 33/04 A2981
W 95 nm 193' KUIL 292253Z 30008G15KT 260V330 10SM CLR 16/09 A2998
TAFs for airports near SEA, sorted by distance:
N 0 nm 432' KSEA TAF KSEA 292321Z 3000/3106 35010KT P6SM SCT150 BKN250
  FM300500 02008KT P6SM BKN150 BKN250
  FM301700 35010KT P6SM VCSH BKN060 OVC100
  FM302200 35011KT 6SM -RA OVC030
N 4 nm 21' KBFI TAF KBFI 292321Z 3000/3024 32008KT P6SM SCT150 BKN250
  FM300500 VRB05KT P6SM BKN150 BKN250
  FM301700 34007KT P6SM VCSH BKN070 OVC100
  FM302200 34010KT 6SM -RA OVC040
W 18 nm 444' KPWT TAF KPWT 292321Z 3000/3024 06007KT P6SM SCT150 BKN250
  FM300400 VRB03KT P6SM BKN150 BKN250
  FM301700 VRB05KT P6SM VCSH BKN050 OVC100
  FM302200 13005KT 6SM -RA OVC030
S 19 nm 322' KTCM TAF KTCM 292100Z 2921/3103 VRB06KT 9999 FEW180 QNH2982INS
  BECMG 3003/3004 VRB06KT 9999 SCT160 BKN250 QNH2980INS
  BECMG 3014/3015 21009KT 8000 -SHRA BKN015 BKN030 QNH2975INS
  TEMPO 3015/3018 VCTS BKN015 BKN030CB
  BECMG 3100/3101 25010G15KT 9000 -RA BKN015 QNH2976INS TX28/2923Z TN12/3013Z
SW 24 nm 301' KGRF TAF KGRF 292108Z 2921/3103 VRB06KT 9999 FEW180 QNH2982INS
  BECMG 3003/3004 VRB06KT 9999 SCT160 BKN250 QNH2980INS
  BECMG 3014/3015 21009KT 8000 -SHRA BKN015 BKN030 QNH2975INS
  TEMPO 3015/3018 VCTS BKN015 BKN030CB
  BECMG 3100/3101 25010G15KT 9000 -RA BKN015 QNH2976INS TX28/2923Z TN12/3013Z
N 27 nm 607' KPAE TAF KPAE 292321Z 3000/3024 35010G18KT P6SM SCT150 BKN250
  FM300300 34006KT P6SM BKN150 BKN250
  FM301800 30010KT P6SM VCSH BKN060 OVC100
  FM302300 31012G18KT 6SM -RA OVC040
SW 37 nm 207' KOLM TAF KOLM 292321Z 3000/3024 36006KT P6SM SCT150 SCT250
  FM300400 VRB04KT P6SM BKN150 BKN250
  FM301500 VRB05KT P6SM VCSH BKN050 OVC080
  FM302000 35006KT 6SM -RA OVC030
N 55 nm 47' KNUW TAF TAF KNUW 2923/3023 24010KT 9999 SCT150 BKN250 QNH2994INS
  TEMPO 2923/3002 28012G18KT 9999 SCT050 BKN150 OVC250
  FM300200 29010KT 9999 VCSH FEW035 BKN100 BKN140 OVC200 QNH2990INS
  TEMPO 3010/3015 26007KT 9000 -RA BR BKN030 OVC100
  FM301500 26008KT 9999 VCSH SCT030 BKN050 OVC160 641009 QNH2982INS
  TEMPO 2020/3023 26014G22KT 9999 -RA BKN020 BKN040 OVC100 T17/2923Z T08/3013Z FS30028
NW 62 nm 291' KCLM TAF KCLM 292321Z 3000/3024 30012G20KT P6SM BKN150 BKN250
  FM300600 30012KT P6SM BKN150 OVC250
  FM301700 29011KT P6SM VCSH BKN070 OVC100
  FM302200 29013KT 6SM -RA OVC040
SW 72 nm 17' KHQM TAF KHQM 292321Z 3000/3024 29012G18KT P6SM SCT150 SCT250
  FM300600 28005KT P6SM FEW025 BKN120
  FM301500 29008KT P6SM VCSH BKN060 OVC100
  FM302000 30012KT 6SM -RA OVC030
N 81 nm 171' KBLI TAF KBLI 292321Z 3000/3024 17005KT P6SM SCT150 BKN250
  FM300500 17005KT P6SM BKN150 BKN250
  FM301800 20011KT P6SM VCSH BKN060 OVC120
  FM302300 20008KT 6SM -RA OVC040
E 85 nm 1248' KEAT KEAT 291723Z 2918/3018 14004KT P6SM FEW150 SCT250
  FM300700 34004KT P6SM SCT100 BKN200
  FM301400 30009KT P6SM -SHRA VCTS BKN100CB
SE 89 nm 1098' KYKM KYKM 291720Z 2918/3018 28006KT P6SM SCT250
  FM292000 12005KT P6SM SCT250
  FM300400 28007KT P6SM SCT200 BKN250
  FM301300 27012KT P6SM VCSH BKN120 OVC200
  FM301730 33016G26KT P6SM VCTS SCT060 BKN080CB

Shortcut to this page: http://wxbay.com.

Data may contain errors.